Shelly, Minnesota
Current Conditions -  °F | °C
As of 7:15 PM on Saturday 25 Oct 2014 (Local Time) from KCKN Reporting Station
Clear Clear  
Wind Chill: 41°   Ceiling: Unl
Heat Index: 45°   Visibility: 10mi
Dew Point: 25°   Wind: 6mph
Humidity: 46%   Direction: 250°WSW
Pressure: 30.03"   Gusts: NA
Location:  47.46°N, 96.82°W
Report Text: KCKN 260015Z AUTO 25005KT 10SM CLR 07/M04 A3003 RMK AO2
Loading
Personal Weather Stations






























Interactive Weather Map
Tropical Storm Tracking
New forecast layout! Learn more

10-Day Weather Forecast

Advertisements
Track Severe Weather on mobile